Time;durP1;ratioP1;P1;durP2;ratioP2;P2;SDS_P1;SDS_P2;PMS_P1;PMS_P2;Temp;Humidity;BMP_temperature;BMP_pressure;BME280_temperature;BME280_humidity;BME280_pressure;Samples;Min_cycle;Max_cycle;Signal;HPM_P1;HPM_P2
2023/06/24 00:02:08;;;;;;;19.77;12.50;;;19.20;99.90;;;;;;4881317;29;20457;-70
2023/06/24 00:04:34;;;;;;;19.00;12.95;;;;;;;;;;4865699;29;20127;-70
2023/06/24 00:07:01;;;;;;;18.17;12.25;;;17.70;99.90;;;;;;4881249;29;20041;-70
2023/06/24 00:09:27;;;;;;;18.90;12.32;;;19.40;99.90;;;;;;4865708;29;20052;-70
2023/06/24 00:11:54;;;;;;;22.92;12.35;;;17.10;99.90;;;;;;4881150;29;20036;-70
2023/06/24 00:14:21;;;;;;;21.70;12.38;;;19.40;99.90;;;;;;4881132;29;20100;-70
2023/06/24 00:16:51;;;;;;;24.40;12.57;;;18.80;99.90;;;;;;4881143;29;20455;-70
2023/06/24 00:19:19;;;;;;;20.63;12.52;;;18.00;99.90;;;;;;4881487;29;20460;-70
2023/06/24 00:21:45;;;;;;;22.90;12.85;;;18.00;99.90;;;;;;4882816;29;20052;-70
2023/06/24 00:24:11;;;;;;;20.58;12.15;;;;;;;;;;4885003;29;20556;-71
2023/06/24 00:26:37;;;;;;;21.15;12.30;;;18.30;99.90;;;;;;4884939;29;20075;-71
2023/06/24 00:29:03;;;;;;;18.60;12.80;;;;;;;;;;4869245;29;20489;-71
2023/06/24 00:31:29;;;;;;;22.67;13.57;;;16.90;99.90;;;;;;4884797;29;20070;-71
2023/06/24 00:33:54;;;;;;;20.50;13.50;;;18.30;99.90;;;;;;4884562;29;20481;-71
2023/06/24 00:36:21;;;;;;;20.60;14.18;;;;;;;;;;4884590;29;20135;-72
2023/06/24 00:38:48;;;;;;;22.40;13.10;;;18.50;99.90;;;;;;4884563;29;20054;-72
2023/06/24 00:41:16;;;;;;;24.23;13.57;;;18.70;99.90;;;;;;4884388;29;20090;-72
2023/06/24 00:43:41;;;;;;;23.05;14.40;;;19.10;99.90;;;;;;4884187;29;20044;-72
2023/06/24 00:46:07;;;;;;;23.52;14.02;;;19.10;99.90;;;;;;4884271;29;20166;-72
2023/06/24 00:48:33;;;;;;;19.13;13.73;;;17.20;99.90;;;;;;4884021;29;20096;-71
2023/06/24 00:50:59;;;;;;;21.70;14.45;;;16.90;99.90;;;;;;4884329;29;20044;-72
2023/06/24 00:53:25;;;;;;;22.60;13.75;;;17.60;99.90;;;;;;4884623;29;20056;-72
2023/06/24 00:55:52;;;;;;;19.98;13.70;;;17.80;99.90;;;;;;4884314;29;20496;-71
2023/06/24 00:58:20;;;;;;;23.67;13.93;;;16.70;99.90;;;;;;4884081;29;20071;-71
2023/06/24 01:00:56;;;;;;;20.48;13.38;;;17.70;99.90;;;;;;4883988;29;20096;-71
2023/06/24 01:03:22;;;;;;;20.40;13.13;;;17.70;99.90;;;;;;4884252;29;20052;-71
2023/06/24 01:05:49;;;;;;;22.15;13.77;;;16.40;99.90;;;;;;4868464;29;20104;-71
2023/06/24 01:08:15;;;;;;;21.88;12.80;;;17.90;99.90;;;;;;4868358;29;20056;-71
2023/06/24 01:10:42;;;;;;;25.13;14.02;;;17.50;99.90;;;;;;4852867;29;20477;-71
2023/06/24 01:13:08;;;;;;;23.70;13.02;;;;;;;;;;4883999;29;20408;-70
2023/06/24 01:15:35;;;;;;;20.58;13.73;;;17.50;99.90;;;;;;4884072;29;20466;-70
2023/06/24 01:18:13;;;;;;;19.60;13.70;;;17.70;99.90;;;;;;4883800;29;20048;-70
2023/06/24 01:21:09;;;;;;;20.10;13.05;;;17.50;99.90;;;;;;4883893;29;20056;-71
2023/06/24 01:23:56;;;;;;;21.05;13.40;;;17.40;99.90;;;;;;4883660;29;20516;-71
2023/06/24 01:26:22;;;;;;;16.60;12.60;;;;;;;;;;4883609;29;20512;-72
2023/06/24 01:29:15;;;;;;;24.05;13.00;;;18.80;99.90;;;;;;4883472;29;20049;-71
2023/06/24 01:31:50;;;;;;;22.35;13.43;;;16.40;99.90;;;;;;4883513;29;20055;-72
2023/06/24 01:34:27;;;;;;;19.10;12.55;;;18.70;99.90;;;;;;4882457;29;20041;-70
2023/06/24 01:37:14;;;;;;;25.70;13.00;;;;;;;;;;4883512;29;20044;-70
2023/06/24 01:39:50;;;;;;;24.98;12.73;;;17.40;99.90;;;;;;4883419;29;20108;-70
2023/06/24 01:42:18;;;;;;;19.13;12.63;;;18.70;99.90;;;;;;4883377;29;20054;-70
2023/06/24 01:44:47;;;;;;;17.92;12.32;;;17.80;99.90;;;;;;4883145;29;20048;-71
2023/06/24 01:47:18;;;;;;;21.20;13.82;;;17.80;99.90;;;;;;4883415;29;20066;-70
2023/06/24 01:49:45;;;;;;;20.33;13.77;;;17.60;99.90;;;;;;4882865;29;20136;-70
2023/06/24 01:52:12;;;;;;;20.45;12.95;;;17.80;99.90;;;;;;4883228;29;20041;-71
2023/06/24 01:54:40;;;;;;;21.02;12.82;;;18.60;99.90;;;;;;4883331;29;20040;-71
2023/06/24 01:57:09;;;;;;;23.38;12.68;;;17.10;99.90;;;;;;4867538;29;20055;-70
2023/06/24 01:59:40;;;;;;;17.45;12.32;;;17.40;99.90;;;;;;4883226;29;20397;-70
2023/06/24 02:02:06;;;;;;;23.65;13.02;;;;;;;;;;4867704;29;20071;-70
2023/06/24 02:04:35;;;;;;;17.80;12.50;;;18.20;99.90;;;;;;4883170;29;20063;-70
2023/06/24 02:07:03;;;;;;;23.35;12.40;;;17.90;99.90;;;;;;4882906;29;20060;-70
2023/06/24 02:09:31;;;;;;;22.25;13.35;;;18.80;99.90;;;;;;4882794;29;20049;-71
2023/06/24 02:11:58;;;;;;;19.23;12.07;;;17.60;99.90;;;;;;4883081;29;20465;-71
2023/06/24 02:14:27;;;;;;;19.77;12.40;;;18.70;99.90;;;;;;4867362;29;20127;-71
2023/06/24 02:16:57;;;;;;;18.08;12.40;;;17.70;99.90;;;;;;4883037;29;20041;-70
2023/06/24 02:19:29;;;;;;;20.13;11.63;;;18.50;99.90;;;;;;4882880;29;20087;-70
2023/06/24 02:21:57;;;;;;;18.05;12.32;;;18.50;99.90;;;;;;4882647;29;20107;-70
2023/06/24 02:24:24;;;;;;;20.15;12.32;;;17.80;99.90;;;;;;4882534;29;20044;-70
2023/06/24 02:26:51;;;;;;;20.60;12.10;;;18.60;99.90;;;;;;4882646;29;20103;-70
2023/06/24 02:29:17;;;;;;;17.00;11.45;;;;;;;;;;4882424;29;20104;-71
2023/06/24 02:31:43;;;;;;;16.00;11.38;;;16.30;99.90;;;;;;4882324;29;20044;-70
2023/06/24 02:34:09;;;;;;;21.17;11.68;;;;;;;;;;4867262;29;20070;-70
2023/06/24 02:36:35;;;;;;;15.43;11.60;;;;;;;;;;4882678;29;20513;-70
2023/06/24 02:39:01;;;;;;;19.80;10.43;;;;;;;;;;4882670;29;20076;-70
2023/06/24 02:41:27;;;;;;;17.75;11.15;;;16.10;99.90;;;;;;4866820;29;20044;-70
2023/06/24 02:43:53;;;;;;;19.02;11.38;;;16.10;99.90;;;;;;4882097;29;20041;-70
2023/06/24 02:46:20;;;;;;;18.38;11.20;;;17.40;99.90;;;;;;4866763;29;20048;-70
2023/06/24 02:48:48;;;;;;;17.70;11.68;;;17.30;99.90;;;;;;4881790;29;20088;-71
2023/06/24 02:51:14;;;;;;;23.02;12.05;;;16.10;99.90;;;;;;4882073;29;20049;-70
2023/06/24 02:53:41;;;;;;;17.92;10.80;;;17.20;99.90;;;;;;4882063;29;20474;-70
2023/06/24 02:56:09;;;;;;;17.95;11.15;;;17.30;99.90;;;;;;4881910;29;20100;-70
2023/06/24 02:58:38;;;;;;;20.88;11.32;;;17.20;99.90;;;;;;4866383;29;20553;-70
2023/06/24 03:01:06;;;;;;;19.65;11.80;;;17.80;99.90;;;;;;4851249;29;20049;-71
2023/06/24 03:03:33;;;;;;;17.85;11.73;;;;;;;;;;4881872;29;20040;-70
2023/06/24 03:05:59;;;;;;;17.85;12.63;;;17.70;99.90;;;;;;4881842;29;20490;-70
2023/06/24 03:08:26;;;;;;;18.25;11.48;;;18.40;99.90;;;;;;4881981;29;20049;-70
2023/06/24 03:10:55;;;;;;;18.42;12.02;;;17.20;99.90;;;;;;4882121;29;20097;-70
2023/06/24 03:13:22;;;;;;;17.58;11.15;;;;;;;;;;4881863;29;20047;-70
2023/06/24 03:15:48;;;;;;;21.33;11.50;;;;;;;;;;4881634;29;20041;-71
2023/06/24 03:18:14;;;;;;;17.95;11.50;;;;;;;;;;4881652;29;20056;-70
2023/06/24 03:20:40;;;;;;;22.38;12.18;;;17.30;99.90;;;;;;4881685;29;20079;-70
2023/06/24 03:23:09;;;;;;;21.38;12.10;;;17.30;99.90;;;;;;4866443;29;20084;-70
2023/06/24 03:25:35;;;;;;;18.83;11.98;;;16.10;99.90;;;;;;4881637;29;20080;-70
2023/06/24 03:28:03;;;;;;;17.77;11.55;;;17.20;99.90;;;;;;4881792;29;20049;-70
2023/06/24 03:30:30;;;;;;;15.63;11.18;;;;;;;;;;4881536;29;20482;-70
2023/06/24 03:32:57;;;;;;;18.83;11.98;;;;;;;;;;4881474;29;20434;-70
2023/06/24 03:35:23;;;;;;;22.55;12.85;;;;;;;;;;4881392;29;20401;-70
2023/06/24 03:37:49;;;;;;;17.48;12.63;;;;;;;;;;4881979;29;20052;-70
2023/06/24 03:40:16;;;;;;;17.23;11.32;;;;;;;;;;4881655;29;20077;-70
2023/06/24 03:42:42;;;;;;;19.77;12.77;;;;;;;;;;4881668;29;20492;-70
2023/06/24 03:45:08;;;;;;;25.58;13.32;;;;;;;;;;4881400;29;20041;-71
2023/06/24 03:47:34;;;;;;;15.20;11.45;;;;;;;;;;4881242;29;20549;-70
2023/06/24 03:50:00;;;;;;;17.80;11.93;;;18.20;99.90;;;;;;4878046;29;20057;-70
2023/06/24 03:52:26;;;;;;;17.30;12.05;;;;;;;;;;4878601;29;20393;-70
2023/06/24 03:54:53;;;;;;;20.80;12.82;;;;;;;;;;4847533;29;20040;-70
2023/06/24 03:57:20;;;;;;;18.45;12.65;;;;;;;;;;4880473;29;20108;-70
2023/06/24 03:59:46;;;;;;;22.52;13.32;;;;;;;;;;4882337;29;20097;-70
2023/06/24 04:02:13;;;;;;;21.95;12.38;;;;;;;;;;4866721;29;20052;-71
2023/06/24 04:04:40;;;;;;;19.35;12.35;;;;;;;;;;4882083;29;20060;-70
2023/06/24 04:07:06;;;;;;;19.02;12.45;;;;;;;;;;4881876;29;20405;-70
2023/06/24 04:09:35;;;;;;;18.98;12.10;;;17.00;99.90;;;;;;4881848;29;20131;-70
2023/06/24 04:12:01;;;;;;;19.27;12.57;;;;;;;;;;4881856;29;20081;-70
2023/06/24 04:14:27;;;;;;;24.60;12.60;;;;;;;;;;4881787;29;20554;-70
2023/06/24 04:16:53;;;;;;;18.42;12.43;;;;;;;;;;4881805;29;20497;-70
2023/06/24 04:19:19;;;;;;;18.48;13.13;;;;;;;;;;4866632;29;20045;-70
2023/06/24 04:21:45;;;;;;;18.15;12.57;;;;;;;;;;4881775;29;20049;-70
2023/06/24 04:24:11;;;;;;;20.33;12.25;;;;;;;;;;4881771;29;20049;-70
2023/06/24 04:26:37;;;;;;;21.25;12.50;;;;;;;;;;4881507;29;20047;-71
2023/06/24 04:29:03;;;;;;;19.45;12.23;;;17.90;99.90;;;;;;4881549;29;20067;-70
2023/06/24 04:31:29;;;;;;;23.08;12.70;;;;;;;;;;4866009;29;20045;-70
2023/06/24 04:33:55;;;;;;;20.65;13.18;;;;;;;;;;4881691;29;20041;-71
2023/06/24 04:36:21;;;;;;;21.25;12.77;;;;;;;;;;4866012;29;20076;-70
2023/06/24 04:38:47;;;;;;;21.98;13.05;;;;;;;;;;4881534;29;20135;-70
2023/06/24 04:41:13;;;;;;;17.98;12.98;;;;;;;;;;4865893;29;20073;-70
2023/06/24 04:43:39;;;;;;;20.55;13.35;;;;;;;;;;4865889;29;20049;-71
2023/06/24 04:46:05;;;;;;;20.25;13.27;;;17.10;99.90;;;;;;4881206;29;20105;-70
2023/06/24 04:48:31;;;;;;;21.48;13.00;;;;;;;;;;4852639;29;20061;-70
2023/06/24 04:50:58;;;;;;;22.08;14.02;;;;;;;;;;4868869;29;20072;-70
2023/06/24 04:53:24;;;;;;;20.90;12.23;;;;;;;;;;4868614;29;20081;-70
2023/06/24 04:55:49;;;;;;;21.38;12.65;;;18.20;99.90;;;;;;4868709;29;20051;-70
2023/06/24 04:58:16;;;;;;;21.30;13.13;;;;;;;;;;4853572;29;20044;-71
2023/06/24 05:00:42;;;;;;;18.95;12.45;;;;;;;;;;4868908;29;20128;-71
2023/06/24 05:03:08;;;;;;;21.50;13.52;;;;;;;;;;4883967;29;20048;-70
2023/06/24 05:05:34;;;;;;;19.50;13.20;;;;;;;;;;4868727;29;20044;-70
2023/06/24 05:07:59;;;;;;;20.60;12.98;;;18.50;99.90;;;;;;4868119;29;20056;-70
2023/06/24 05:10:26;;;;;;;21.05;13.02;;;;;;;;;;4883859;29;20047;-70
2023/06/24 05:12:52;;;;;;;21.35;12.93;;;;;;;;;;4884074;29;20127;-70
2023/06/24 05:15:18;;;;;;;24.70;14.48;;;;;;;;;;4883800;29;20552;-70
2023/06/24 05:17:44;;;;;;;22.13;14.10;;;;;;;;;;4884371;29;20055;-70
2023/06/24 05:20:10;;;;;;;22.42;13.88;;;18.90;99.90;;;;;;4883672;29;20486;-70
2023/06/24 05:22:36;;;;;;;26.80;13.13;;;;;;;;;;4883690;29;20044;-71
2023/06/24 05:25:02;;;;;;;20.85;14.02;;;;;;;;;;4883818;29;20389;-71
2023/06/24 05:27:29;;;;;;;18.92;13.07;;;;;;;;;;4883756;29;20441;-70
2023/06/24 05:29:54;;;;;;;20.48;13.10;;;17.70;99.90;;;;;;4883728;29;20048;-70
2023/06/24 05:32:20;;;;;;;23.30;14.02;;;19.10;99.90;;;;;;4883563;29;20056;-70
2023/06/24 05:34:46;;;;;;;18.92;13.07;;;19.30;99.90;;;;;;4883557;29;20083;-71
2023/06/24 05:37:12;;;;;;;24.88;14.85;;;;;;;;;;4883382;29;20128;-71
2023/06/24 05:39:38;;;;;;;19.65;13.65;;;;;;;;;;4868108;29;20096;-71
2023/06/24 05:42:08;;;;;;;21.27;14.52;;;;;;;;;;4867901;29;20493;-71
2023/06/24 05:44:34;;;;;;;19.25;12.95;;;;;;;;;;4868384;29;20055;-71
2023/06/24 05:47:00;;;;;;;24.65;14.40;;;;;;;;;;4883345;29;20053;-72
2023/06/24 05:49:26;;;;;;;18.75;13.57;;;;;;;;;;4882973;29;20098;-72
2023/06/24 05:51:52;;;;;;;22.00;14.50;;;19.30;99.90;;;;;;4867671;29;20068;-72
2023/06/24 05:54:18;;;;;;;22.70;13.85;;;;;;;;;;4883185;29;20135;-72
2023/06/24 05:56:44;;;;;;;24.83;14.48;;;19.70;99.90;;;;;;4883193;29;20048;-72
2023/06/24 05:59:10;;;;;;;19.75;14.20;;;;;;;;;;4883130;29;20048;-72
2023/06/24 06:01:36;;;;;;;21.98;14.68;;;19.00;99.90;;;;;;4883255;29;20052;-72
2023/06/24 06:04:02;;;;;;;21.58;13.75;;;19.60;99.90;;;;;;4883188;29;20053;-72
2023/06/24 06:06:28;;;;;;;24.02;13.73;;;;;;;;;;4882817;29;20080;-72
2023/06/24 06:08:54;;;;;;;22.55;14.13;;;;;;;;;;4882821;29;20127;-72
2023/06/24 06:11:20;;;;;;;23.17;14.35;;;19.90;99.90;;;;;;4883088;29;20128;-72
2023/06/24 06:13:46;;;;;;;22.77;13.52;;;19.70;99.90;;;;;;4882883;29;20051;-72
2023/06/24 06:16:12;;;;;;;20.92;13.48;;;;;;;;;;4867723;29;20162;-72
2023/06/24 06:18:38;;;;;;;21.23;13.48;;;;;;;;;;4882642;29;20473;-72
2023/06/24 06:21:03;;;;;;;22.90;14.35;;;19.40;99.90;;;;;;4866843;29;20046;-72
2023/06/24 06:23:29;;;;;;;17.52;12.48;;;20.10;99.90;;;;;;4882681;29;20132;-72
2023/06/24 06:25:55;;;;;;;26.27;12.57;;;;;;;;;;4882714;29;20128;-72
2023/06/24 06:28:21;;;;;;;21.25;13.77;;;20.00;99.90;;;;;;4852324;29;20060;-72
2023/06/24 06:30:47;;;;;;;19.20;12.88;;;;;;;;;;4882600;29;20049;-72
2023/06/24 06:33:13;;;;;;;23.98;13.38;;;19.10;99.90;;;;;;4882447;29;20048;-71
2023/06/24 06:35:39;;;;;;;17.95;12.70;;;;;;;;;;4882250;29;20041;-71
2023/06/24 06:38:05;;;;;;;17.90;11.98;;;18.70;99.90;;;;;;4882288;29;20048;-71
2023/06/24 06:40:31;;;;;;;17.13;12.25;;;20.20;99.90;;;;;;4882420;29;20501;-71
2023/06/24 06:42:56;;;;;;;19.42;11.57;;;20.20;99.90;;;;;;4882297;29;20048;-72
2023/06/24 06:45:23;;;;;;;19.25;11.52;;;;;;;;;;4866985;29;20077;-72
2023/06/24 06:47:50;;;;;;;21.50;12.95;;;19.90;99.90;;;;;;4882068;29;20048;-72
2023/06/24 06:50:16;;;;;;;16.33;11.00;;;;;;;;;;4881910;29;20060;-72
2023/06/24 06:52:42;;;;;;;17.27;11.75;;;20.80;99.90;;;;;;4881984;29;20108;-72
2023/06/24 06:55:08;;;;;;;19.67;10.75;;;20.80;99.90;;;;;;4882082;29;20044;-72
2023/06/24 06:57:33;;;;;;;20.63;11.05;;;20.90;99.90;;;;;;4881936;29;20045;-72
2023/06/24 07:00:00;;;;;;;18.25;10.95;;;;;;;;;;4851538;29;20048;-72
2023/06/24 07:02:25;;;;;;;18.73;11.45;;;20.90;99.90;;;;;;4881652;29;20105;-72
2023/06/24 07:04:51;;;;;;;20.27;11.13;;;;;;;;;;4882034;29;20044;-72
2023/06/24 07:07:17;;;;;;;20.60;11.30;;;;;;;;;;4851395;29;20111;-72
2023/06/24 07:09:43;;;;;;;22.35;12.13;;;21.10;99.90;;;;;;4881668;29;20051;-72
2023/06/24 07:12:09;;;;;;;19.75;11.40;;;20.90;99.90;;;;;;4881636;29;20044;-72
2023/06/24 07:14:35;;;;;;;21.67;11.68;;;;;;;;;;4881546;29;20100;-72
2023/06/24 07:17:01;;;;;;;16.98;10.13;;;19.70;99.90;;;;;;4881541;29;20069;-72
2023/06/24 07:19:27;;;;;;;18.13;9.73;;;21.40;99.90;;;;;;4866054;29;20048;-73
2023/06/24 07:21:52;;;;;;;22.77;10.27;;;21.10;99.90;;;;;;4882067;29;20116;-73
2023/06/24 07:24:18;;;;;;;13.88;9.45;;;;;;;;;;4881338;29;20072;-73
2023/06/24 07:26:45;;;;;;;18.40;9.38;;;;;;;;;;4881182;29;20438;-73
2023/06/24 07:29:11;;;;;;;21.08;9.98;;;;;;;;;;4865804;29;20052;-73
2023/06/24 07:31:37;;;;;;;16.25;9.50;;;21.00;99.90;;;;;;4881525;29;20051;-73
2023/06/24 07:34:03;;;;;;;18.17;8.25;;;20.20;99.90;;;;;;4881440;29;20050;-73
2023/06/24 07:36:29;;;;;;;18.70;8.57;;;20.00;99.90;;;;;;4865788;29;20045;-73
2023/06/24 07:38:54;;;;;;;16.83;8.65;;;21.60;99.90;;;;;;4881291;29;20134;-73
2023/06/24 07:41:20;;;;;;;18.80;8.18;;;;;;;;;;4881451;29;20400;-73
2023/06/24 07:43:46;;;;;;;13.77;8.57;;;;;;;;;;4865636;29;20135;-73
2023/06/24 07:46:12;;;;;;;19.48;8.70;;;20.40;99.90;;;;;;4881589;29;20115;-73
2023/06/24 07:48:38;;;;;;;13.73;8.05;;;;;;;;;;4880872;29;20386;-73
2023/06/24 07:51:04;;;;;;;17.85;7.93;;;;;;;;;;4881113;29;20052;-73
2023/06/24 07:53:30;;;;;;;12.63;7.30;;;21.80;99.90;;;;;;4865972;29;20393;-73
2023/06/24 07:55:56;;;;;;;13.57;8.25;;;;;;;;;;4881124;29;20044;-73
2023/06/24 07:58:22;;;;;;;15.55;8.45;;;;;;;;;;4881357;29;20135;-73
2023/06/24 08:00:48;;;;;;;14.90;9.85;;;;;;;;;;4865633;29;20131;-73
2023/06/24 08:03:14;;;;;;;14.02;9.05;;;20.50;99.90;;;;;;4865785;29;20080;-73
2023/06/24 08:05:40;;;;;;;18.75;9.30;;;21.30;99.90;;;;;;4881028;29;20076;-73
2023/06/24 08:08:06;;;;;;;14.85;8.40;;;20.70;99.90;;;;;;4835337;29;20128;-73
2023/06/24 08:10:32;;;;;;;17.33;9.18;;;22.40;99.90;;;;;;4898253;29;20052;-73
2023/06/24 08:12:58;;;;;;;13.98;8.85;;;21.40;99.90;;;;;;4881226;29;20045;-73
2023/06/24 08:15:24;;;;;;;16.35;8.75;;;;;;;;;;4881144;29;20073;-73
2023/06/24 08:17:54;;;;;;;12.23;8.30;;;22.00;98.60;;;;;;4866096;29;20080;-73
2023/06/24 08:20:21;;;;;;;15.00;8.55;;;22.50;99.90;;;;;;4881206;29;20037;-73
2023/06/24 08:22:47;;;;;;;17.90;9.13;;;22.80;99.90;;;;;;4881078;29;20044;-73
2023/06/24 08:25:12;;;;;;;15.25;8.55;;;22.30;99.90;;;;;;4881347;29;20070;-73
2023/06/24 08:27:39;;;;;;;17.73;8.73;;;;;;;;;;4881092;29;20092;-73
2023/06/24 08:30:08;;;;;;;17.95;9.98;;;23.00;99.10;;;;;;4865496;29;20040;-73
2023/06/24 08:32:35;;;;;;;17.02;8.73;;;;;;;;;;4880859;29;20045;-73
2023/06/24 08:35:01;;;;;;;16.83;8.38;;;;;;;;;;4880833;29;20549;-73
2023/06/24 08:37:27;;;;;;;17.65;8.88;;;22.70;99.90;;;;;;4881134;29;20048;-73
2023/06/24 08:39:53;;;;;;;16.88;10.13;;;22.50;99.90;;;;;;4881098;29;20414;-73
2023/06/24 08:42:19;;;;;;;20.17;9.25;;;22.00;99.90;;;;;;4881458;29;20056;-73
2023/06/24 08:44:45;;;;;;;14.70;8.63;;;;;;;;;;4884066;29;20051;-73
2023/06/24 08:47:14;;;;;;;16.90;9.50;;;22.60;98.70;;;;;;4884495;29;20052;-73
2023/06/24 08:49:48;;;;;;;16.17;9.20;;;22.30;98.00;;;;;;4884167;29;20056;-73
2023/06/24 08:52:15;;;;;;;16.15;9.00;;;22.30;99.90;;;;;;4884540;29;20052;-73
2023/06/24 08:54:45;;;;;;;15.82;9.68;;;22.00;99.90;;;;;;4868497;29;20434;-73
2023/06/24 08:57:14;;;;;;;17.25;9.38;;;23.50;99.90;;;;;;4884294;29;20044;-73
2023/06/24 08:59:41;;;;;;;16.42;8.25;;;23.60;99.90;;;;;;4884267;29;20495;-73
2023/06/24 09:02:07;;;;;;;16.17;8.60;;;;;;;;;;4884323;29;20397;-73
2023/06/24 09:04:33;;;;;;;14.25;8.32;;;;;;;;;;4883944;29;20504;-73
2023/06/24 09:06:59;;;;;;;18.83;8.77;;;24.00;98.40;;;;;;4868709;29;20521;-73
2023/06/24 09:09:25;;;;;;;22.25;8.93;;;;;;;;;;4883953;29;20096;-73
2023/06/24 09:11:55;;;;;;;14.02;7.70;;;23.40;97.10;;;;;;4883919;29;20516;-73
2023/06/24 09:14:22;;;;;;;15.57;7.82;;;;;;;;;;4884075;29;20378;-73
2023/06/24 09:16:56;;;;;;;14.82;7.38;;;23.50;99.30;;;;;;4883985;29;20096;-73
2023/06/24 09:19:23;;;;;;;12.20;7.40;;;23.50;99.10;;;;;;4883828;29;20127;-73
2023/06/24 09:21:49;;;;;;;17.48;10.32;;;23.90;98.60;;;;;;4868091;29;20489;-73
2023/06/24 09:24:15;;;;;;;14.05;7.63;;;23.40;98.30;;;;;;4883771;29;20150;-73
2023/06/24 09:26:46;;;;;;;16.75;8.40;;;24.10;94.40;;;;;;4868035;29;20497;-73
2023/06/24 09:29:15;;;;;;;14.38;8.30;;;24.60;98.40;;;;;;4883470;29;20048;-72
2023/06/24 09:31:55;;;;;;;20.05;10.27;;;24.60;98.10;;;;;;4899002;29;20132;-72
2023/06/24 09:34:21;;;;;;;19.98;8.82;;;24.60;97.70;;;;;;4869057;29;20048;-72
2023/06/24 09:36:55;;;;;;;17.42;8.73;;;25.00;97.80;;;;;;4883572;29;20132;-72
2023/06/24 09:39:22;;;;;;;15.85;8.02;;;25.10;93.10;;;;;;4883477;29;20102;-72
2023/06/24 09:41:51;;;;;;;13.00;7.65;;;24.60;97.30;;;;;;4883263;29;20477;-72
2023/06/24 09:44:19;;;;;;;17.83;7.93;;;25.50;97.40;;;;;;4883216;29;20048;-73
2023/06/24 09:46:45;;;;;;;14.50;7.80;;;25.30;94.60;;;;;;4883251;29;20055;-72
2023/06/24 09:49:11;;;;;;;16.58;7.97;;;25.10;96.60;;;;;;4867238;29;20497;-72
2023/06/24 09:51:39;;;;;;;17.35;8.63;;;25.50;92.50;;;;;;4883202;29;20041;-72
2023/06/24 09:54:09;;;;;;;16.95;9.10;;;25.30;91.30;;;;;;4882380;29;20358;-72
2023/06/24 09:56:45;;;;;;;18.67;9.75;;;25.00;95.90;;;;;;4883337;29;20083;-72
2023/06/24 09:59:12;;;;;;;16.80;9.75;;;25.80;96.20;;;;;;4883301;29;20413;-72
2023/06/24 10:01:44;;;;;;;15.88;8.77;;;25.40;96.30;;;;;;4882937;29;20052;-71
2023/06/24 10:04:15;;;;;;;19.60;9.13;;;25.00;92.60;;;;;;4883121;29;20103;-72
2023/06/24 10:06:41;;;;;;;12.80;7.63;;;;;;;;;;4883052;29;20058;-73
2023/06/24 10:09:07;;;;;;;17.15;8.88;;;;;;;;;;4882574;29;20045;-72
2023/06/24 10:11:33;;;;;;;12.02;7.93;;;25.50;96.10;;;;;;4883077;29;20040;-72
2023/06/24 10:13:59;;;;;;;20.60;9.52;;;25.80;95.80;;;;;;4883090;29;20048;-72
2023/06/24 10:16:24;;;;;;;21.20;9.70;;;26.10;92.80;;;;;;4882808;29;20554;-72
2023/06/24 10:18:50;;;;;;;14.55;8.20;;;;;;;;;;4882842;29;20552;-72
2023/06/24 10:21:16;;;;;;;20.02;8.93;;;26.20;90.20;;;;;;4882626;29;20484;-72
2023/06/24 10:23:49;;;;;;;17.02;8.68;;;26.00;90.10;;;;;;4866964;29;20076;-73
2023/06/24 10:26:36;;;;;;;15.30;7.15;;;26.30;87.90;;;;;;4882401;29;20044;-72
2023/06/24 10:29:08;;;;;;;12.95;7.88;;;26.00;93.60;;;;;;4851645;29;20134;-72
2023/06/24 10:31:40;;;;;;;17.35;8.77;;;26.30;84.50;;;;;;4882416;29;20044;-71
2023/06/24 10:34:24;;;;;;;;;;;26.50;88.30;;;;;;4882867;29;20512;-72
2023/06/24 10:36:57;;;;;;;11.85;7.43;;;26.90;92.70;;;;;;4882468;29;19923;-72
2023/06/24 10:39:36;;;;;;;15.23;7.93;;;26.20;92.30;;;;;;4882121;29;20047;-72
2023/06/24 10:42:23;;;;;;;14.25;7.88;;;27.00;91.80;;;;;;4866974;29;20048;-71
2023/06/24 10:44:50;;;;;;;18.45;8.32;;;27.00;92.00;;;;;;4882098;29;20505;-72
2023/06/24 10:47:16;;;;;;;13.82;7.90;;;26.90;85.80;;;;;;4867087;29;20107;-72
2023/06/24 10:49:42;;;;;;;14.55;7.82;;;27.30;92.30;;;;;;4881568;29;20517;-71
2023/06/24 10:52:09;;;;;;;16.15;7.15;;;27.10;85.60;;;;;;4866454;29;20052;-72
2023/06/24 10:54:37;;;;;;;17.60;9.10;;;27.50;86.80;;;;;;4882162;29;20112;-72
2023/06/24 10:57:04;;;;;;;15.23;8.18;;;27.30;84.40;;;;;;4881851;29;20040;-72
2023/06/24 10:59:41;;;;;;;12.65;7.22;;;27.30;91.60;;;;;;4866714;29;20044;-72
2023/06/24 11:02:11;;;;;;;13.77;6.75;;;26.90;91.30;;;;;;4881944;29;20111;-72
2023/06/24 11:04:58;;;;;;;14.73;7.45;;;27.00;81.70;;;;;;4866609;29;20052;-71
2023/06/24 11:07:25;;;;;;;15.35;7.13;;;27.40;91.40;;;;;;4866630;29;20049;-72
2023/06/24 11:09:53;;;;;;;15.80;5.55;;;26.70;83.20;;;;;;4866283;29;20112;-72
2023/06/24 11:12:23;;;;;;;14.13;6.28;;;26.60;91.10;;;;;;4881878;29;20485;-72
2023/06/24 11:14:49;;;;;;;15.18;6.20;;;27.40;91.30;;;;;;4866568;29;20055;-72
2023/06/24 11:17:14;;;;;;;10.68;5.72;;;27.20;91.10;;;;;;4881504;29;20040;-72
2023/06/24 11:19:40;;;;;;;10.93;4.47;;;27.60;90.50;;;;;;4881547;29;20127;-72
2023/06/24 11:22:09;;;;;;;11.98;5.45;;;27.50;89.80;;;;;;4881899;29;20053;-72
2023/06/24 11:24:35;;;;;;;11.05;5.35;;;27.40;90.00;;;;;;4881914;29;20076;-71
2023/06/24 11:27:01;;;;;;;10.88;5.32;;;27.70;90.40;;;;;;4866191;29;20052;-72
2023/06/24 11:29:33;;;;;;;12.02;6.10;;;27.80;90.40;;;;;;4881772;29;20049;-72
2023/06/24 11:32:00;;;;;;;8.25;4.65;;;27.40;89.90;;;;;;4881530;29;20508;-72
2023/06/24 11:34:26;;;;;;;9.75;5.07;;;27.30;80.30;;;;;;4881485;29;20564;-72
2023/06/24 11:36:52;;;;;;;10.70;4.90;;;27.60;84.30;;;;;;4881625;29;20396;-72
2023/06/24 11:39:27;;;;;;;9.43;4.15;;;27.40;78.50;;;;;;4881373;29;20049;-72
2023/06/24 11:41:57;;;;;;;10.85;4.85;;;27.80;89.70;;;;;;4881344;29;20564;-72
2023/06/24 11:44:26;;;;;;;11.73;5.35;;;27.80;89.20;;;;;;4881335;29;20053;-71
2023/06/24 11:46:52;;;;;;;13.57;4.70;;;27.70;86.30;;;;;;4881266;29;20041;-71
2023/06/24 11:49:19;;;;;;;12.55;5.68;;;27.50;88.50;;;;;;4881150;29;20060;-71
2023/06/24 11:51:52;;;;;;;13.98;5.53;;;27.70;88.80;;;;;;4881329;29;20096;-71
2023/06/24 11:54:20;;;;;;;12.90;5.65;;;27.60;79.20;;;;;;4881867;29;20037;-71
2023/06/24 11:56:51;;;;;;;10.15;5.43;;;27.90;79.60;;;;;;4881418;29;20048;-72
2023/06/24 11:59:19;;;;;;;9.20;4.40;;;27.70;78.60;;;;;;4881057;29;20404;-71
2023/06/24 12:01:53;;;;;;;9.95;5.03;;;27.60;79.80;;;;;;4881185;29;20044;-71
2023/06/24 12:04:19;;;;;;;10.88;6.10;;;27.60;86.50;;;;;;4866817;29;20049;-71
2023/06/24 12:06:45;;;;;;;9.77;5.07;;;;;;;;;;4881238;29;20081;-71
2023/06/24 12:09:12;;;;;;;7.07;4.07;;;27.90;78.50;;;;;;4881079;29;20041;-71
2023/06/24 12:11:38;;;;;;;11.07;5.07;;;;;;;;;;4865836;29;20066;-71
2023/06/24 12:14:05;;;;;;;10.85;4.90;;;28.30;85.30;;;;;;4881025;29;20080;-72
2023/06/24 12:16:31;;;;;;;9.30;4.85;;;27.70;84.20;;;;;;4865749;29;20051;-72
2023/06/24 12:18:57;;;;;;;11.02;5.95;;;28.20;84.80;;;;;;4884381;29;20041;-72
2023/06/24 12:21:23;;;;;;;9.20;5.68;;;28.10;85.00;;;;;;4884647;29;20102;-73
2023/06/24 12:23:48;;;;;;;10.57;5.78;;;28.40;85.20;;;;;;4884767;29;20139;-73
2023/06/24 12:26:15;;;;;;;10.57;5.32;;;28.20;84.70;;;;;;4884580;29;20366;-72
2023/06/24 12:28:41;;;;;;;11.25;5.25;;;28.80;85.00;;;;;;4884780;29;20119;-73
2023/06/24 12:31:06;;;;;;;18.00;4.63;;;28.10;84.10;;;;;;4869317;29;20429;-73
2023/06/24 12:33:32;;;;;;;8.20;4.40;;;28.60;83.90;;;;;;4838865;29;20123;-72
2023/06/24 12:35:59;;;;;;;9.90;5.43;;;29.00;82.80;;;;;;4869073;29;20049;-72
2023/06/24 12:38:24;;;;;;;13.75;6.55;;;28.60;83.90;;;;;;4884625;29;20037;-73
2023/06/24 12:40:50;;;;;;;11.52;6.53;;;28.60;83.80;;;;;;4884252;29;20493;-72
2023/06/24 12:43:16;;;;;;;10.82;5.80;;;29.20;83.70;;;;;;4884369;29;20044;-72
2023/06/24 12:45:45;;;;;;;13.02;5.95;;;28.90;79.00;;;;;;4868811;29;20052;-72
2023/06/24 12:48:12;;;;;;;10.10;5.75;;;28.90;83.10;;;;;;4868913;29;20445;-72
2023/06/24 12:50:38;;;;;;;17.90;7.20;;;29.20;83.00;;;;;;4884184;29;20056;-72
2023/06/24 12:53:04;;;;;;;14.60;6.45;;;28.70;82.80;;;;;;4884296;29;20036;-73
2023/06/24 12:55:30;;;;;;;15.00;5.65;;;29.00;83.20;;;;;;4884293;29;20048;-73
2023/06/24 12:57:57;;;;;;;9.10;5.30;;;29.00;83.30;;;;;;4884128;29;20049;-72
2023/06/24 13:00:24;;;;;;;13.55;6.55;;;28.90;82.90;;;;;;4884233;29;20048;-72
2023/06/24 13:02:50;;;;;;;10.63;5.10;;;;;;;;;;4868811;29;20457;-73
2023/06/24 13:05:16;;;;;;;15.70;5.93;;;29.00;82.60;;;;;;4883810;29;20084;-72
2023/06/24 13:07:43;;;;;;;14.23;6.50;;;29.40;82.50;;;;;;4884125;29;20464;-73